Main page
METAR-TAF:

METAR-TAF

Airports :

RAF Barkston Heath

Barkston Heath, England

latitude: 52-58N, longitude: 000-34W, elevation: 112 m

Current weather observation

The report was made 1 hour and 8 minutes ago, at 20:20 UTC
Wind 5 kt from the Southeast
Temperature 12°C
Humidity 76%
Pressure 1023 hPa

METAR: EGYE 192020Z AUTO 13005KT //// NCD 12/08 Q1023

Time: 22:28 (21:28 UTC)

Forecast

The report was made 8 hours and 8 minutes ago, at 13:20 UTC
Forecast valid from 19 at 15 UTC to 19 at 19 UTC
Wind 5 kt from the East/Southeast
Visibility 10 km or more
Few clouds at a height of 4000 ft

TAF: EGYE 191320Z 1915/1919 11005KT 9999 FEW040

Weather observations and forecasts of more than 4000 airports (METAR and TAF reports).

The available stations are represented by yellow and red dots on the map.

Hover mouse over dot to see the name of the station.

Then click to see weather observations and forecasts.

To change the map : click on the green buttons with a black cross to zoom in, on the green button with a dash to zoom out, or on the green arrows for adjacent maps.


METAR-TAF: